Time;durP1;ratioP1;P1;durP2;ratioP2;P2;SDS_P1;SDS_P2;PMS_P1;PMS_P2;Temp;Humidity;BMP_temperature;BMP_pressure;BME280_temperature;BME280_humidity;BME280_pressure;Samples;Min_cycle;Max_cycle;Signal;HPM_P1;HPM_P2
2022/09/05 00:01:22;;;;;;;1.73;1.63;;;;;;;17.03;67.06;99286.47;4898068;29;20049;-69
2022/09/05 00:04:11;;;;;;;2.25;2.05;;;;;;;17.01;67.22;99279.69;4907884;29;20112;-69
2022/09/05 00:07:27;;;;;;;2.03;1.83;;;;;;;16.96;67.14;99280.38;4915522;29;20054;-68
2022/09/05 00:10:28;;;;;;;1.98;1.88;;;;;;;16.89;67.28;99271.59;4919051;29;20056;-68
2022/09/05 00:13:04;;;;;;;1.95;1.85;;;;;;;16.88;67.30;99282.53;4919058;29;20055;-68
2022/09/05 00:16:10;;;;;;;2.00;1.90;;;;;;;16.87;67.66;99272.88;4918976;29;20059;-68
2022/09/05 00:18:49;;;;;;;1.67;1.58;;;;;;;16.88;68.17;99269.16;4918890;29;20048;-68
2022/09/05 00:21:44;;;;;;;2.17;1.98;;;;;;;16.91;67.37;99271.41;4918395;29;20056;-68
2022/09/05 00:24:52;;;;;;;1.80;1.70;;;;;;;16.88;67.19;99277.19;4918698;29;20043;-68
2022/09/05 00:28:10;;;;;;;2.45;1.63;;;;;;;16.84;67.36;99282.97;4918425;29;20044;-68
2022/09/05 00:31:07;;;;;;;1.80;1.55;;;;;;;16.84;67.54;99271.47;4918722;29;20131;-68
2022/09/05 00:33:57;;;;;;;2.40;1.85;;;;;;;16.81;67.64;99266.56;4908212;29;20076;-67
2022/09/05 00:36:35;;;;;;;2.25;2.00;;;;;;;16.76;67.43;99261.06;4912364;29;20044;-67
2022/09/05 00:39:06;;;;;;;1.98;1.88;;;;;;;16.70;67.62;99267.28;4917477;29;20094;-68
2022/09/05 00:41:33;;;;;;;1.83;1.73;;;;;;;16.67;67.77;99265.88;4917290;29;20112;-67
2022/09/05 00:44:01;;;;;;;2.33;2.13;;;;;;;16.63;67.67;99264.66;4918409;29;20051;-67
2022/09/05 00:46:32;;;;;;;1.60;1.50;;;;;;;16.61;67.91;99264.06;4918389;29;20055;-68
2022/09/05 00:49:21;;;;;;;1.85;1.75;;;;;;;16.61;68.18;99253.38;4918583;29;20056;-67
2022/09/05 00:52:03;;;;;;;1.48;1.38;;;;;;;16.62;68.38;99249.69;4918477;29;20052;-68
2022/09/05 00:54:44;;;;;;;1.70;1.60;;;;;;;16.60;68.19;99252.56;4918279;29;20048;-68
2022/09/05 00:57:38;;;;;;;1.42;1.33;;;;;;;16.60;68.16;99255.25;4917835;29;20048;-68
2022/09/05 01:00:13;;;;;;;1.83;1.73;;;;;;;16.58;67.84;99248.50;4918337;29;20445;-68
2022/09/05 01:03:16;;;;;;;1.48;1.38;;;;;;;16.56;68.00;99248.72;4910249;29;20052;-68
2022/09/05 01:06:05;;;;;;;1.50;1.40;;;;;;;16.58;68.29;99251.19;4910095;29;20048;-67
2022/09/05 01:09:08;;;;;;;1.40;1.30;;;;;;;16.62;68.34;99251.56;4917788;29;20526;-67
2022/09/05 01:11:47;;;;;;;0.95;0.95;;;;;;;16.62;68.26;99252.38;4900699;29;20048;-68
2022/09/05 01:14:35;;;;;;;1.17;1.08;;;;;;;16.63;68.23;99254.00;4917804;29;20047;-67
2022/09/05 01:17:11;;;;;;;1.10;1.10;;;;;;;16.61;68.18;99256.06;4916369;29;20489;-67
2022/09/05 01:19:50;;;;;;;1.35;1.27;;;;;;;16.56;67.62;99259.38;4901107;29;20435;-67
2022/09/05 01:22:37;;;;;;;1.58;1.48;;;;;;;16.48;68.07;99262.34;4916399;29;20088;-67
2022/09/05 01:25:51;;;;;;;1.20;1.00;;;;;;;16.48;68.37;99265.00;4917666;29;20408;-67
2022/09/05 01:28:58;;;;;;;1.17;1.10;;;;;;;16.45;68.20;99251.28;4885252;29;20135;-67
2022/09/05 01:32:07;;;;;;;1.30;1.20;;;;;;;16.41;68.64;99258.09;4917310;29;20047;-67
2022/09/05 01:35:11;;;;;;;0.70;0.70;;;;;;;16.42;68.70;99257.91;4905102;29;20055;-67
2022/09/05 01:38:05;;;;;;;0.82;0.82;;;;;;;16.43;68.71;99262.19;4878397;29;20045;-68
2022/09/05 01:40:54;;;;;;;0.63;0.63;;;;;;;16.46;68.86;99260.94;4881048;29;20037;-68
2022/09/05 01:44:09;;;;;;;0.80;0.80;;;;;;;16.46;68.81;99259.09;4880636;29;20060;-67
2022/09/05 01:46:43;;;;;;;0.85;0.85;;;;;;;16.44;68.53;99257.66;4879967;29;20045;-67
2022/09/05 01:49:23;;;;;;;1.13;1.02;;;;;;;16.42;68.55;99257.91;4879593;29;20128;-68
2022/09/05 01:52:28;;;;;;;1.33;1.23;;;;;;;16.38;68.18;99253.22;4879745;29;20529;-67
2022/09/05 01:55:12;;;;;;;2.85;1.70;;;;;;;16.34;68.45;99260.84;4879629;29;20498;-68
2022/09/05 01:58:07;;;;;;;1.50;1.40;;;;;;;16.27;68.65;99257.41;4879205;29;20490;-67
2022/09/05 02:00:43;;;;;;;1.55;1.45;;;;;;;16.16;68.56;99253.59;4878545;29;20060;-67
2022/09/05 02:03:31;;;;;;;1.42;1.33;;;;;;;16.10;69.07;99255.28;4892943;29;20048;-67
2022/09/05 02:06:19;;;;;;;1.80;1.67;;;;;;;16.10;69.23;99265.13;4909129;29;20048;-67
2022/09/05 02:09:01;;;;;;;1.70;1.60;;;;;;;16.08;68.92;99259.19;4915866;29;20058;-67
2022/09/05 02:11:46;;;;;;;1.20;1.20;;;;;;;16.03;69.29;99259.84;4917017;29;20173;-67
2022/09/05 02:14:29;;;;;;;1.15;1.13;;;;;;;16.02;68.84;99257.41;4916933;29;20059;-67
2022/09/05 02:17:22;;;;;;;1.40;1.30;;;;;;;16.02;69.42;99268.88;4916365;29;20463;-67
2022/09/05 02:20:22;;;;;;;1.92;1.83;;;;;;;16.02;69.01;99260.06;4916610;29;20044;-67
2022/09/05 02:22:59;;;;;;;1.83;1.73;;;;;;;16.02;68.95;99260.06;4916317;29;20107;-67
2022/09/05 02:25:39;;;;;;;2.03;1.92;;;;;;;15.98;68.71;99261.53;4916370;29;20051;-67
2022/09/05 02:28:37;;;;;;;1.83;1.67;;;;;;;15.90;68.81;99264.47;4914978;29;20048;-67
2022/09/05 02:31:14;;;;;;;1.85;1.60;;;;;;;15.83;69.15;99262.63;4916512;29;20416;-68
2022/09/05 02:33:55;;;;;;;2.65;2.03;;;;;;;15.78;68.90;99262.47;4906959;29;20052;-67
2022/09/05 02:36:35;;;;;;;2.65;1.90;;;;;;;15.72;68.94;99258.03;4909428;29;20079;-68
2022/09/05 02:39:18;;;;;;;1.90;1.80;;;;;;;15.69;69.42;99255.78;4916415;29;20096;-68
2022/09/05 02:42:26;;;;;;;3.70;2.05;;;;;;;15.65;69.66;99254.56;4915252;29;20055;-67
2022/09/05 02:45:43;;;;;;;2.00;1.90;;;;;;;15.57;69.70;99249.47;4915380;29;20488;-67
2022/09/05 02:48:43;;;;;;;2.28;1.63;;;;;;;15.57;70.24;99257.47;4914720;29;20055;-67
2022/09/05 02:51:17;;;;;;;1.55;1.45;;;;;;;15.60;70.16;99249.03;4915025;29;20052;-67
2022/09/05 02:54:12;;;;;;;1.77;1.30;;;;;;;15.63;70.34;99258.44;4916175;29;20055;-67
2022/09/05 02:57:17;;;;;;;;;;;;;;;15.66;69.87;99252.72;4915325;29;20044;-66
2022/09/05 03:00:13;;;;;;;;;;;;;;;15.64;69.61;99255.59;4916640;29;19923;-66
2022/09/05 03:03:10;;;;;;;3.05;2.28;;;;;;;15.62;70.09;99254.97;4908665;29;20303;-67
2022/09/05 03:05:55;;;;;;;1.60;1.50;;;;;;;15.64;70.37;99246.78;4906696;29;20102;-67
2022/09/05 03:08:42;;;;;;;1.60;1.50;;;;;;;15.65;69.94;99257.25;4914625;29;20055;-67
2022/09/05 03:11:30;;;;;;;2.05;1.85;;;;;;;15.63;69.47;99253.91;4914784;29;20044;-67
2022/09/05 03:14:24;;;;;;;2.17;1.98;;;;;;;15.59;69.57;99248.22;4915968;29;20048;-67
2022/09/05 03:17:22;;;;;;;2.40;2.30;;;;;;;15.50;69.79;99246.00;4915822;29;20040;-68
2022/09/05 03:20:31;;;;;;;1.92;1.80;;;;;;;15.48;70.23;99242.75;4915918;29;20044;-68
2022/09/05 03:23:23;;;;;;;1.67;1.58;;;;;;;15.51;70.51;99252.97;4914992;29;20063;-66
2022/09/05 03:25:59;;;;;;;1.42;1.33;;;;;;;15.55;70.64;99252.34;4915136;29;20401;-66
2022/09/05 03:29:03;;;;;;;1.33;1.23;;;;;;;15.59;70.19;99256.22;4916431;29;20407;-67
2022/09/05 03:31:43;;;;;;;1.08;1.00;;;;;;;15.63;70.18;99253.91;4916270;29;20048;-67
2022/09/05 03:34:25;;;;;;;1.80;1.67;;;;;;;15.63;69.42;99251.25;4897644;29;20045;-68
2022/09/05 03:37:10;;;;;;;2.40;1.60;;;;;;;15.53;69.66;99246.41;4917693;29;20048;-67
2022/09/05 03:39:58;;;;;;;1.88;1.50;;;;;;;15.46;69.87;99245.63;4919677;29;20056;-67
2022/09/05 03:43:20;;;;;;;1.58;1.48;;;;;;;15.46;70.08;99253.63;4919648;29;20515;-67
2022/09/05 03:45:52;;;;;;;1.63;1.52;;;;;;;15.41;69.69;99249.97;4918710;29;20051;-67
2022/09/05 03:48:28;;;;;;;2.50;2.00;;;;;;;15.36;69.87;99248.75;4918196;29;20036;-67
2022/09/05 03:51:09;;;;;;;2.45;1.75;;;;;;;15.31;69.95;99251.25;4919892;29;20787;-68
2022/09/05 03:54:07;;;;;;;1.95;1.85;;;;;;;15.23;70.11;99256.00;4919807;29;20048;-68
2022/09/05 03:57:21;;;;;;;2.75;2.08;;;;;;;15.16;70.30;99247.22;4919268;29;20108;-67
2022/09/05 04:03:17;;;;;;;1.83;1.73;;;;;;;15.15;71.01;99259.72;5112418;23;20049;-66
2022/09/05 04:06:16;;;;;;;2.03;1.65;;;;;;;15.19;70.86;99260.94;4899138;29;20507;-66
2022/09/05 04:09:16;;;;;;;1.90;1.80;;;;;;;15.13;70.63;99255.63;4899259;29;20543;-68
2022/09/05 04:12:25;;;;;;;1.20;1.20;;;;;;;15.10;71.16;99264.84;4899707;29;20056;-67
2022/09/05 04:15:03;;;;;;;1.30;1.20;;;;;;;15.11;71.04;99266.50;4900243;29;20049;-67
2022/09/05 04:17:42;;;;;;;1.00;1.00;;;;;;;15.15;70.73;99269.56;4923539;23;20025;-68
2022/09/05 04:20:35;;;;;;;1.23;1.15;;;;;;;15.19;71.18;99274.25;4920003;29;20075;-68
2022/09/05 04:23:18;;;;;;;0.80;0.80;;;;;;;15.25;71.09;99272.56;4920757;29;20129;-69
2022/09/05 04:26:26;;;;;;;1.35;1.25;;;;;;;15.25;70.49;99268.06;4920864;29;20150;-69
2022/09/05 04:29:15;;;;;;;2.08;1.90;;;;;;;15.22;70.23;99267.66;4920785;29;20024;-69
2022/09/05 04:31:54;;;;;;;1.88;1.77;;;;;;;15.21;70.44;99272.16;4921070;29;20113;-68
2022/09/05 04:34:47;;;;;;;1.52;1.42;;;;;;;15.23;70.86;99278.13;4925569;29;20072;-69
2022/09/05 04:37:54;;;;;;;1.52;1.42;;;;;;;15.26;70.75;99274.19;4898916;29;20064;-69
2022/09/05 04:40:33;;;;;;;1.80;1.70;;;;;;;15.26;70.23;99272.34;4898354;29;20060;-69
2022/09/05 04:43:08;;;;;;;2.15;1.95;;;;;;;15.26;70.47;99271.53;4915032;29;20116;-69
2022/09/05 04:45:41;;;;;;;2.03;1.70;;;;;;;15.27;70.31;99273.19;4898956;29;20108;-69
2022/09/05 04:48:12;;;;;;;1.67;1.57;;;;;;;15.24;70.22;99273.59;4898372;29;20427;-69
2022/09/05 04:51:30;;;;;;;1.80;1.55;;;;;;;15.22;70.43;99280.97;4887367;29;20711;-69
2022/09/05 04:54:16;;;;;;;2.78;2.17;;;;;;;15.23;70.62;99283.44;4871972;29;20068;-69
2022/09/05 04:56:49;;;;;;;1.67;1.55;;;;;;;15.27;70.62;99287.31;4900676;29;20132;-69
2022/09/05 04:59:24;;;;;;;2.45;2.25;;;;;;;15.29;69.77;99285.25;4900587;29;20109;-69
2022/09/05 05:02:24;;;;;;;1.83;1.33;;;;;;;15.30;70.26;99286.88;4903619;29;20077;-69
2022/09/05 05:05:20;;;;;;;2.13;1.60;;;;;;;15.36;70.07;99293.22;4920467;29;20052;-69
2022/09/05 05:08:23;;;;;;;2.88;1.60;;;;;;;15.40;70.25;99299.75;4920344;29;20044;-69
2022/09/05 05:11:12;;;;;;;1.90;1.80;;;;;;;15.43;70.09;99301.16;4910437;29;20052;-69
2022/09/05 05:14:16;;;;;;;2.08;1.88;;;;;;;15.47;69.90;99300.56;4910657;29;20048;-69
2022/09/05 05:17:12;;;;;;;2.35;2.15;;;;;;;15.48;69.10;99301.38;4916852;29;20061;-69
2022/09/05 05:20:14;;;;;;;2.42;2.00;;;;;;;15.41;69.42;99297.91;4916093;29;20053;-69
2022/09/05 05:23:04;;;;;;;2.63;2.28;;;;;;;15.40;69.46;99302.44;4913622;29;20059;-69
2022/09/05 05:25:45;;;;;;;2.20;2.00;;;;;;;15.42;69.54;99307.53;4906754;29;20049;-69
2022/09/05 05:28:15;;;;;;;2.38;2.17;;;;;;;15.45;69.58;99304.47;4908164;29;20553;-69
2022/09/05 05:30:50;;;;;;;2.00;1.67;;;;;;;15.48;69.25;99304.84;4910616;29;20055;-69
2022/09/05 05:33:31;;;;;;;2.58;1.80;;;;;;;15.51;69.54;99312.44;4914181;29;20045;-69
2022/09/05 05:35:59;;;;;;;2.10;1.90;;;;;;;15.55;69.03;99316.31;4925884;29;20058;-69
2022/09/05 05:38:49;;;;;;;2.15;1.95;;;;;;;15.58;69.48;99315.03;4935879;29;20050;-69
2022/09/05 05:41:20;;;;;;;2.30;2.10;;;;;;;15.59;69.15;99322.84;4936736;29;20047;-67
2022/09/05 05:43:50;;;;;;;2.35;2.17;;;;;;;15.61;68.89;99325.28;4938338;29;20135;-68
2022/09/05 05:46:52;;;;;;;2.17;2.03;;;;;;;15.61;68.66;99322.63;4937579;29;20062;-68
2022/09/05 05:49:43;;;;;;;2.58;2.20;;;;;;;15.63;68.88;99322.41;4921841;29;20107;-67
2022/09/05 05:52:55;;;;;;;2.15;2.05;;;;;;;15.66;69.02;99314.00;4939719;29;20099;-68
2022/09/05 05:55:39;;;;;;;1.70;1.60;;;;;;;15.73;68.94;99322.81;4941007;29;20032;-68
2022/09/05 05:58:51;;;;;;;1.60;1.50;;;;;;;15.87;69.15;99323.53;4939374;28;20048;-68
2022/09/05 06:01:55;;;;;;;1.65;1.55;;;;;;;15.95;68.46;99315.28;4938019;29;20071;-67
2022/09/05 06:04:52;;;;;;;1.63;1.52;;;;;;;15.98;68.33;99320.19;4941833;28;20039;-67
2022/09/05 06:07:47;;;;;;;1.98;1.77;;;;;;;15.96;68.32;99316.91;4940425;29;20108;-67
2022/09/05 06:10:52;;;;;;;3.35;2.00;;;;;;;15.99;67.84;99324.50;4940161;29;20036;-67
2022/09/05 06:14:00;;;;;;;2.85;2.38;;;;;;;16.04;67.97;99335.31;4932930;29;20040;-67
2022/09/05 06:17:15;;;;;;;2.38;2.22;;;;;;;16.16;67.95;99327.44;4931425;29;20052;-67
2022/09/05 06:20:27;;;;;;;2.45;2.25;;;;;;;16.25;68.01;99336.84;4932501;29;20059;-68
2022/09/05 06:23:16;;;;;;;2.20;2.00;;;;;;;16.33;67.66;99334.72;4932128;29;20048;-67
2022/09/05 06:26:16;;;;;;;1.92;1.83;;;;;;;16.43;67.58;99328.91;4933011;29;20052;-67
2022/09/05 06:29:16;;;;;;;2.45;2.03;;;;;;;16.57;67.57;99329.59;4930182;29;20056;-68
2022/09/05 06:32:20;;;;;;;2.40;1.60;;;;;;;16.69;66.97;99327.03;4933285;29;20048;-68
2022/09/05 06:35:06;;;;;;;1.30;1.20;;;;;;;16.80;66.97;99334.34;4918893;29;20056;-68
2022/09/05 06:37:57;;;;;;;1.33;1.23;;;;;;;16.95;67.10;99334.00;4929398;29;20044;-67
2022/09/05 06:40:31;;;;;;;3.67;2.42;;;;;;;17.05;66.13;99326.28;4930701;29;20056;-67
2022/09/05 06:43:12;;;;;;;3.60;3.10;;;;;;;17.09;66.04;99324.81;4934218;29;20511;-68
2022/09/05 06:46:05;;;;;;;3.15;2.85;;;;;;;17.12;65.77;99323.56;4927186;29;20488;-67
2022/09/05 06:48:54;;;;;;;2.72;2.47;;;;;;;17.15;65.83;99325.81;4932474;29;20105;-67
2022/09/05 06:52:28;;;;;;;2.63;2.35;;;;;;;17.29;65.78;99329.94;4922486;29;20054;-67
2022/09/05 06:55:01;;;;;;;1.98;1.80;;;;;;;17.40;66.01;99331.88;4916296;29;20084;-67
2022/09/05 06:57:50;;;;;;;2.83;2.10;;;;;;;17.52;65.53;99332.75;4925746;29;20055;-67
2022/09/05 07:00:25;;;;;;;2.65;2.45;;;;;;;17.64;65.33;99327.47;4930447;29;20051;-68
2022/09/05 07:03:20;;;;;;;4.60;3.00;;;;;;;17.74;64.78;99329.59;4923181;29;20564;-70
2022/09/05 07:05:59;;;;;;;2.67;2.47;;;;;;;17.79;64.89;99324.41;4909082;29;20095;-68
2022/09/05 07:08:29;;;;;;;2.92;2.55;;;;;;;17.86;64.78;99322.47;4916657;29;20036;-67
2022/09/05 07:11:15;;;;;;;2.30;2.10;;;;;;;17.97;64.87;99332.38;4915188;29;20086;-67
2022/09/05 07:13:53;;;;;;;1.92;1.73;;;;;;;18.09;64.97;99326.28;4916340;29;20100;-67
2022/09/05 07:16:26;;;;;;;1.98;1.88;;;;;;;18.21;64.73;99321.75;4915044;29;20135;-67
2022/09/05 07:19:29;;;;;;;2.72;2.53;;;;;;;18.36;64.44;99334.69;4916216;29;20060;-68
2022/09/05 07:22:25;;;;;;;2.17;2.00;;;;;;;18.49;64.05;99326.44;4916063;29;20066;-69
2022/09/05 07:25:16;;;;;;;2.55;2.30;;;;;;;18.58;63.69;99322.41;4916606;29;20048;-68
2022/09/05 07:28:03;;;;;;;2.77;2.57;;;;;;;18.67;63.66;99334.38;4899602;29;20107;-67
2022/09/05 07:30:56;;;;;;;1.70;1.60;;;;;;;18.79;63.54;99337.91;4915423;29;20445;-69
2022/09/05 07:33:26;;;;;;;;;;;;;;;18.88;63.31;99341.03;4908325;29;20127;-69
2022/09/05 07:35:58;;;;;;;1.10;1.10;;;;;;;18.98;63.12;99340.44;4909399;29;19923;-69
2022/09/05 07:38:28;;;;;;;0.98;0.98;;;;;;;19.11;63.06;99337.56;4916230;29;20044;-69
2022/09/05 07:41:14;;;;;;;1.38;1.27;;;;;;;19.27;62.71;99342.19;4916934;29;20056;-69
2022/09/05 07:43:45;;;;;;;1.65;1.30;;;;;;;19.38;62.71;99343.19;4918234;29;20055;-72
2022/09/05 07:46:19;;;;;;;1.25;1.10;;;;;;;19.49;62.33;99345.03;4919589;29;20052;-69
2022/09/05 07:48:51;;;;;;;1.55;1.40;;;;;;;19.58;62.09;99350.03;4917689;29;20068;-68
2022/09/05 07:51:23;;;;;;;1.42;1.20;;;;;;;19.70;61.99;99348.97;4915759;29;20409;-69
2022/09/05 07:54:28;;;;;;;1.70;1.60;;;;;;;19.85;61.78;99340.41;4921177;29;20504;-68
2022/09/05 07:57:20;;;;;;;1.35;1.25;;;;;;;20.03;61.25;99342.88;4917508;29;20139;-68
2022/09/05 08:00:10;;;;;;;1.38;1.27;;;;;;;20.21;60.79;99336.50;4918342;29;20080;-68
2022/09/05 08:02:58;;;;;;;1.33;1.23;;;;;;;20.34;60.65;99345.28;4909725;29;20055;-68
2022/09/05 08:05:32;;;;;;;1.50;1.40;;;;;;;20.46;60.44;99344.16;4910662;29;20122;-69
2022/09/05 08:08:07;;;;;;;1.98;1.83;;;;;;;20.59;60.07;99342.22;4916892;29;20036;-69
2022/09/05 08:10:41;;;;;;;1.98;1.83;;;;;;;20.71;59.79;99335.72;4917465;29;20052;-69
2022/09/05 08:13:53;;;;;;;1.50;1.40;;;;;;;20.90;59.73;99340.81;4919082;29;20052;-69
2022/09/05 08:16:41;;;;;;;3.22;1.95;;;;;;;21.03;59.40;99337.78;4921370;29;20068;-69
2022/09/05 08:19:39;;;;;;;1.27;1.17;;;;;;;21.13;59.23;99337.91;4920887;29;20052;-68
2022/09/05 08:22:12;;;;;;;1.48;1.38;;;;;;;21.24;58.83;99334.31;4930096;29;20056;-69
2022/09/05 08:24:47;;;;;;;1.42;1.33;;;;;;;21.35;58.45;99326.38;4917210;29;20509;-69
2022/09/05 08:27:25;;;;;;;0.90;0.90;;;;;;;21.48;58.28;99328.72;4928717;29;20048;-68
2022/09/05 08:30:07;;;;;;;0.90;0.90;;;;;;;21.60;57.88;99318.63;4933247;29;20150;-68
2022/09/05 08:33:12;;;;;;;1.27;1.00;;;;;;;21.76;57.47;99319.63;4928062;29;20104;-69
2022/09/05 08:35:51;;;;;;;1.00;1.00;;;;;;;21.90;57.37;99315.44;4928721;29;20100;-68
2022/09/05 08:38:31;;;;;;;0.80;0.80;;;;;;;22.02;56.98;99317.97;4933812;29;20048;-69
2022/09/05 08:41:24;;;;;;;1.60;1.50;;;;;;;22.16;56.32;99321.91;4930622;29;20536;-69
2022/09/05 08:44:15;;;;;;;2.95;2.35;;;;;;;22.30;55.53;99318.81;4915984;29;20048;-67
2022/09/05 08:47:25;;;;;;;3.05;2.83;;;;;;;22.42;55.22;99322.13;4920272;29;20062;-67
2022/09/05 08:50:12;;;;;;;2.53;2.33;;;;;;;22.53;55.04;99320.31;4918271;29;20078;-67
2022/09/05 08:52:56;;;;;;;1.90;1.80;;;;;;;22.69;55.02;99312.06;4919259;29;20059;-67
2022/09/05 08:55:32;;;;;;;1.58;1.48;;;;;;;22.85;54.70;99307.59;4919437;29;20076;-68
2022/09/05 08:58:35;;;;;;;1.50;1.40;;;;;;;22.98;54.13;99314.44;4918764;29;20062;-67
2022/09/05 09:01:20;;;;;;;1.33;1.23;;;;;;;23.11;53.79;99319.38;4917684;29;20071;-67
2022/09/05 09:04:09;;;;;;;2.17;1.23;;;;;;;23.24;53.38;99312.69;4910851;29;20059;-67
2022/09/05 09:06:49;;;;;;;1.42;1.33;;;;;;;23.36;52.74;99312.47;4913919;29;20056;-67
2022/09/05 09:09:48;;;;;;;1.35;1.25;;;;;;;23.47;52.57;99306.88;4917523;29;20044;-67
2022/09/05 09:13:12;;;;;;;1.30;1.23;;;;;;;23.60;52.29;99302.84;4902240;29;20052;-67
2022/09/05 09:15:57;;;;;;;1.00;1.00;;;;;;;23.74;51.75;99305.88;4864893;29;20060;-67
2022/09/05 09:18:51;;;;;;;1.20;0.90;;;;;;;23.89;51.56;99292.41;4860003;29;20054;-67
2022/09/05 09:21:23;;;;;;;2.40;2.08;;;;;;;24.10;51.13;99293.25;4885765;29;20052;-67
2022/09/05 09:24:22;;;;;;;2.00;1.80;;;;;;;24.25;50.63;99284.34;4918939;29;20126;-67
2022/09/05 09:26:51;;;;;;;1.80;1.70;;;;;;;24.36;50.22;99285.94;4927962;29;20084;-67
2022/09/05 09:29:18;;;;;;;2.10;1.25;;;;;;;24.50;50.14;99285.44;4916619;29;20075;-68
2022/09/05 09:31:45;;;;;;;1.25;1.15;;;;;;;24.63;49.81;99284.88;4918057;29;20086;-68
2022/09/05 09:34:31;;;;;;;1.45;1.35;;;;;;;24.68;49.60;99269.44;4906615;29;20048;-67
2022/09/05 09:37:23;;;;;;;1.67;1.45;;;;;;;24.79;49.09;99274.84;4915915;29;20081;-67
2022/09/05 09:40:42;;;;;;;1.60;1.27;;;;;;;24.87;49.14;99266.97;4917909;29;20063;-67
2022/09/05 09:43:26;;;;;;;1.50;1.40;;;;;;;24.97;48.21;99263.41;4917705;29;20127;-68
2022/09/05 09:46:16;;;;;;;1.48;1.38;;;;;;;25.06;48.74;99253.63;4917500;29;20048;-67
2022/09/05 09:49:22;;;;;;;1.50;1.30;;;;;;;25.16;48.50;99252.84;4917725;29;20048;-67
2022/09/05 09:52:23;;;;;;;2.15;1.45;;;;;;;25.30;48.18;99245.72;4916482;29;20696;-67
2022/09/05 09:55:17;;;;;;;1.40;1.27;;;;;;;25.39;48.21;99244.06;4917499;29;20444;-68
2022/09/05 09:58:06;;;;;;;1.13;1.02;;;;;;;25.51;47.94;99243.69;4915786;29;20055;-68
2022/09/05 10:01:06;;;;;;;1.05;1.05;;;;;;;25.65;47.34;99239.28;4917216;29;20044;-68
2022/09/05 10:03:59;;;;;;;1.45;1.35;;;;;;;25.79;47.02;99244.91;4908973;29;20052;-68
2022/09/05 10:07:09;;;;;;;1.40;1.30;;;;;;;25.87;46.60;99238.88;4913992;29;20052;-67
2022/09/05 10:10:07;;;;;;;1.50;1.40;;;;;;;25.99;46.36;99238.53;4916288;29;20051;-68
2022/09/05 10:13:13;;;;;;;1.20;1.10;;;;;;;26.16;45.89;99238.13;4916163;29;20095;-70
2022/09/05 10:15:56;;;;;;;1.30;1.20;;;;;;;26.29;45.74;99229.34;4916734;29;20528;-68
2022/09/05 10:19:00;;;;;;;0.90;0.90;;;;;;;26.40;44.99;99238.16;4911956;23;20048;-67
2022/09/05 10:21:33;;;;;;;1.75;1.65;;;;;;;26.49;44.89;99225.63;4891883;29;20048;-66
2022/09/05 10:24:31;;;;;;;1.23;1.10;;;;;;;26.55;44.54;99210.94;4896911;29;20061;-67
2022/09/05 10:27:20;;;;;;;1.30;1.20;;;;;;;26.61;43.99;99215.19;4896507;29;20092;-67
2022/09/05 10:30:03;;;;;;;1.35;1.25;;;;;;;26.66;43.66;99215.16;4896913;29;20072;-68
2022/09/05 10:33:10;;;;;;;1.05;0.98;;;;;;;26.72;43.13;99212.38;4896633;29;20062;-68
2022/09/05 10:36:27;;;;;;;1.30;1.20;;;;;;;26.79;42.54;99207.44;4902951;29;20063;-68
2022/09/05 10:39:17;;;;;;;0.90;0.90;;;;;;;26.93;41.97;99201.00;4896474;29;20473;-68
2022/09/05 10:41:59;;;;;;;0.98;0.95;;;;;;;27.05;41.99;99203.28;4899647;29;20516;-68
2022/09/05 10:44:39;;;;;;;1.20;1.10;;;;;;;27.16;41.64;99204.81;4899810;29;20052;-68
2022/09/05 10:47:16;;;;;;;1.13;1.10;;;;;;;27.25;40.91;99196.81;4898137;29;20049;-70
2022/09/05 10:49:47;;;;;;;1.00;1.00;;;;;;;27.32;40.76;99194.56;4896199;29;20052;-67
2022/09/05 10:52:31;;;;;;;0.70;0.70;;;;;;;27.40;39.78;99176.78;4897774;29;20044;-68
2022/09/05 10:55:24;;;;;;;0.85;0.80;;;;;;;27.53;39.64;99181.47;4912694;29;20059;-69
2022/09/05 10:58:11;;;;;;;;;;;;;;;27.64;39.86;99179.41;4896799;29;20052;-68
2022/09/05 11:00:59;;;;;;;1.42;1.15;;;;;;;27.69;39.72;99179.34;4898212;29;19923;-69
2022/09/05 11:03:49;;;;;;;0.90;0.90;;;;;;;27.73;39.00;99180.38;4905253;29;20079;-67
2022/09/05 11:06:22;;;;;;;1.00;1.00;;;;;;;27.82;38.39;99175.06;4909029;29;20055;-68
2022/09/05 11:09:06;;;;;;;1.13;1.00;;;;;;;27.94;36.77;99180.84;4914928;29;20080;-68
2022/09/05 11:11:44;;;;;;;0.90;0.90;;;;;;;28.05;36.34;99176.84;4916155;29;20052;-68
2022/09/05 11:14:54;;;;;;;0.93;0.93;;;;;;;28.11;35.34;99181.09;4916395;29;20126;-66
2022/09/05 11:17:45;;;;;;;0.85;0.85;;;;;;;28.13;34.73;99176.16;4888426;29;20075;-67
2022/09/05 11:20:40;;;;;;;0.60;0.60;;;;;;;28.18;34.31;99179.91;4914813;29;20055;-67
2022/09/05 11:23:21;;;;;;;0.88;0.88;;;;;;;28.22;34.59;99172.75;4914552;29;20051;-68
2022/09/05 11:26:03;;;;;;;1.25;0.93;;;;;;;28.22;33.60;99167.31;4914552;29;20146;-67
2022/09/05 11:28:48;;;;;;;0.80;0.80;;;;;;;28.25;33.33;99166.69;4916256;29;20036;-67
2022/09/05 11:31:51;;;;;;;0.70;0.70;;;;;;;28.35;31.68;99161.91;4914664;29;20059;-68
2022/09/05 11:35:06;;;;;;;0.88;0.88;;;;;;;28.41;32.12;99164.53;4900699;29;20040;-68
2022/09/05 11:38:08;;;;;;;0.70;0.70;;;;;;;28.50;31.77;99158.13;4877842;29;20402;-68
2022/09/05 11:41:03;;;;;;;1.13;1.02;;;;;;;28.66;31.21;99155.91;4864115;29;20049;-67
2022/09/05 11:43:56;;;;;;;0.80;0.80;;;;;;;28.79;30.94;99154.28;4877203;29;20068;-67
2022/09/05 11:47:18;;;;;;;0.80;0.80;;;;;;;28.90;30.28;99147.47;4877280;29;20064;-67
2022/09/05 11:50:04;;;;;;;1.05;0.88;;;;;;;28.85;30.56;99142.16;4878092;29;20055;-68
2022/09/05 11:52:47;;;;;;;1.05;1.00;;;;;;;28.75;30.61;99147.81;4877062;29;20131;-68
2022/09/05 11:55:35;;;;;;;1.00;1.00;;;;;;;28.78;31.07;99142.59;4877221;29;20137;-68
2022/09/05 11:58:37;;;;;;;0.80;0.80;;;;;;;28.89;31.06;99141.22;4881630;29;20071;-67
2022/09/05 12:01:32;;;;;;;0.80;0.80;;;;;;;29.11;30.38;99143.25;4881794;29;20049;-67
2022/09/05 12:04:53;;;;;;;0.70;0.70;;;;;;;29.17;30.81;99129.53;4891633;29;20052;-67
2022/09/05 12:08:04;;;;;;;0.90;0.90;;;;;;;29.19;30.52;99130.00;4876238;29;20081;-68
2022/09/05 12:10:48;;;;;;;0.98;0.75;;;;;;;29.27;30.01;99132.00;4860521;29;20135;-67
2022/09/05 12:13:47;;;;;;;0.80;0.80;;;;;;;29.42;29.72;99120.75;4880199;29;20080;-66
2022/09/05 12:16:36;;;;;;;0.80;0.80;;;;;;;29.53;29.57;99113.94;4880230;29;20123;-67
2022/09/05 12:19:39;;;;;;;0.90;0.90;;;;;;;29.60;29.31;99119.78;4864854;29;20049;-68
2022/09/05 12:22:28;;;;;;;0.55;0.55;;;;;;;29.67;28.93;99115.81;4881422;29;20056;-68
2022/09/05 12:25:04;;;;;;;0.73;0.73;;;;;;;29.80;29.07;99109.47;4881494;29;20093;-68
2022/09/05 12:27:55;;;;;;;1.13;0.75;;;;;;;29.93;27.26;99108.59;4880900;29;20490;-67
2022/09/05 12:30:43;;;;;;;0.40;0.40;;;;;;;29.98;26.99;99102.22;4880430;29;20183;-67
2022/09/05 12:33:30;;;;;;;0.50;0.50;;;;;;;30.05;26.62;99100.66;4899064;29;20048;-68
2022/09/05 12:36:35;;;;;;;0.60;0.60;;;;;;;30.08;26.47;99096.47;4905160;29;20491;-68
2022/09/05 12:39:27;;;;;;;0.73;0.70;;;;;;;30.16;26.80;99095.72;4917554;29;20044;-69
2022/09/05 12:42:21;;;;;;;0.70;0.70;;;;;;;30.28;26.48;99097.84;4917368;29;20060;-68
2022/09/05 12:45:09;;;;;;;0.80;0.80;;;;;;;30.28;26.25;99095.94;4918585;29;20051;-68
2022/09/05 12:48:01;;;;;;;0.60;0.60;;;;;;;30.34;27.05;99094.69;4918274;29;20044;-67
2022/09/05 12:50:59;;;;;;;0.68;0.68;;;;;;;30.48;26.78;99096.47;4917325;29;20484;-67
2022/09/05 12:53:39;;;;;;;0.63;0.50;;;;;;;30.56;26.93;99096.50;4918438;29;20489;-69
2022/09/05 12:56:15;;;;;;;0.70;0.70;;;;;;;30.55;27.33;99089.44;4917025;29;20452;-68
2022/09/05 12:59:04;;;;;;;0.75;0.75;;;;;;;30.53;27.55;99097.13;4917181;29;20048;-68
2022/09/05 13:02:04;;;;;;;1.13;0.70;;;;;;;30.67;27.15;99090.75;4917320;29;20048;-68
2022/09/05 13:04:57;;;;;;;0.57;0.57;;;;;;;30.76;27.20;99086.13;4908312;29;20501;-70
2022/09/05 13:07:30;;;;;;;0.80;0.80;;;;;;;30.82;27.16;99084.84;4915632;29;20056;-69
2022/09/05 13:10:02;;;;;;;1.10;1.00;;;;;;;30.86;27.12;99085.00;4917977;29;20459;-68
2022/09/05 13:12:54;;;;;;;0.60;0.60;;;;;;;30.94;26.65;99085.00;4918190;29;20059;-69
2022/09/05 13:15:49;;;;;;;0.82;0.82;;;;;;;30.98;26.57;99075.06;4917977;29;20055;-68
2022/09/05 13:18:33;;;;;;;1.77;0.90;;;;;;;30.99;26.30;99078.63;4900535;29;20103;-68
2022/09/05 13:21:05;;;;;;;0.98;0.98;;;;;;;30.88;26.32;99066.41;4917815;29;20055;-69
2022/09/05 13:24:10;;;;;;;1.20;1.10;;;;;;;30.68;26.15;99068.59;4901125;29;20054;-67